• Join FlightAware (Why Join?)
  • Login
  • US Flag 
01:46PM EDT


 

Airport Tracker/Info


-or-


 

Live Flight TrackerFlight Track Log ✈ GJS3710 ✈ 16-May-2013 ✈ KMSY - KORD

Flight Track Log - Related Links

Times and Time Zones

All times are in EDT time to prevent confusion due to time zone crossing. See the GJS3710 flight status page for this flight to view local times or setup timezone preferences in your user account.

Time Position Orientation Groundspeed Altitude Reporting Facility
EDT Latitude Longitude Course Direction KTS MPH feet Rate Location/Type
03:31PM 29.9781 -90.2539 193° South 148 170 600  Level Houston Center
03:33PM 29.9281 -90.2675 193° South 177 204 2,700 2,160 Climbing Houston Center
03:33PM 29.8897 -90.2333 142° Southeast 229 264 5,000 2,280 Climbing Houston Center
03:34PM 29.9019 -90.1561 80° East 268 308 7,000 2,040 Climbing Houston Center
03:36PM 29.9344 -90.0542 70° East 308 354 9,400 1,860 Climbing Houston Center
03:37PM 29.9694 -89.9433 70° East 314 361 11,300 1,500 Climbing Houston Center
03:38PM 30.0100 -89.8333 67° East 370 426 12,800 1,800 Climbing Houston Center
03:39PM 30.1064 -89.8017 16° North 368 423 15,100 2,040 Climbing Houston Center
03:40PM 30.2103 -89.7922 North 371 427 17,100 1,800 Climbing Houston Center
03:41PM 30.3294 -89.7817 North 377 434 18,900 1,500 Climbing Houston Center
03:42PM 30.4422 -89.7692 North 408 470 20,300 1,440 Climbing Houston Center
03:43PM 30.5569 -89.7542 North 414 476 22,000 1,440 Climbing Houston Center
03:44PM 30.6719 -89.7378 North 415 478 23,400 1,320 Climbing Houston Center
03:45PM 30.7886 -89.7214 North 422 486 24,800 1,260 Climbing Houston Center
03:46PM 30.9314 -89.7000 North 429 494 26,100 1,020 Climbing Houston Center
03:47PM 31.0511 -89.7103 356° North 430 495 27,000 960 Climbing Houston Center
03:48PM 31.1731 -89.7181 357° North 437 503 28,100 900 Climbing Houston Center
03:49PM 31.2956 -89.7261 357° North 443 510 28,900 720 Climbing Houston Center
03:50PM 31.4208 -89.7342 357° North 449 517 29,700 720 Climbing Houston Center
03:51PM 31.5722 -89.7536 354° North 456 525 30,500 660 Climbing Houston Center
03:52PM 31.6997 -89.7731 353° North 462 532 31,100 960 Climbing Houston Center
03:53PM 31.8339 -89.7947 352° North 456 525 32,500 1,320 Climbing Houston Center
03:54PM 31.9572 -89.8142 352° North 448 516 33,900 1,020 Climbing Houston Center
03:55PM 32.0772 -89.8344 352° North 438 504 34,700 780 Climbing Houston Center
03:56PM 32.2136 -89.8539 353° North 438 504 35,600 720 Climbing Memphis Center
03:57PM 32.3328 -89.8753 351° North 433 498 36,300 900 Climbing Memphis Center
03:58PM 32.4519 -89.8944 352° North 428 493 37,400 720 Climbing Memphis Center
03:59PM 32.5667 -89.9136 352° North 428 493 37,800 300 Climbing Memphis Center
04:00PM 32.6858 -89.9328 352° North 428 493 38,000 60 Climbing Memphis Center
04:01PM 32.8028 -89.9544 351° North 428 493 38,000  Level Memphis Center
04:02PM 32.9239 -89.9736 352° North 433 498 38,000  Level Memphis Center
04:03PM 33.0492 -89.9953 352° North 438 504 38,000  Level Memphis Center
04:04PM 33.1703 -90.0122 353° North 443 510 38,000  Level Memphis Center
04:05PM 33.2914 -90.0317 352° North 443 510 38,000  Level Memphis Center
04:06PM 33.4147 -90.0511 353° North 443 510 38,000  Level Memphis Center
04:07PM 33.5336 -90.0706 352° North 443 510 38,000  Level Memphis Center
04:08PM 33.6547 -90.0903 352° North 443 510 38,000  Level Memphis Center
04:09PM 33.7758 -90.1097 352° North 443 510 38,000  Level Memphis Center
04:10PM 33.8950 -90.1319 351° North 443 510 38,000  Level Memphis Center
04:12PM 34.1411 -90.1689 353° North 443 510 38,000  Level Memphis Center
04:13PM 34.2603 -90.1914 351° North 443 510 38,000  Level Memphis Center
04:14PM 34.3814 -90.2111 352° North 443 510 38,000  Level Memphis Center
04:15PM 34.4897 -90.2311 351° North 443 510 38,000  Level Memphis Center
04:16PM 34.6108 -90.2536 351° North 443 510 38,000  Level Memphis Center
04:17PM 34.7339 -90.2736 352° North 443 510 38,000  Level Memphis Center
04:18PM 34.8572 -90.2939 352° North 450 518 38,000  Level Memphis Center
04:20PM 35.1158 -90.3367 352° North 443 510 38,000  Level Memphis Center
04:21PM 35.2389 -90.3569 352° North 446 513 38,000  Level Memphis Center
04:22PM 35.3619 -90.3775 352° North 446 513 38,000  Level Memphis Center
04:23PM 35.4850 -90.3953 353° North 446 513 38,000  Level Memphis Center
04:24PM 35.6122 -90.4183 352° North 446 513 38,000  Level Memphis Center
04:25PM 35.7269 -90.4414 351° North 446 513 38,000  Level Memphis Center
04:26PM 35.8519 -90.4619 352° North 438 504 38,000  Level Memphis Center
04:27PM 35.9750 -90.4853 351° North 443 510 38,000  Level Memphis Center
04:28PM 36.1044 -90.5086 352° North 453 521 38,000  Level Memphis Center
04:29PM 36.2336 -90.5319 352° North 464 534 38,000  Level Memphis Center
04:30PM 36.3461 -90.5528 352° North 464 534 38,000  Level Memphis Center
04:32PM 36.5500 -90.5828 353° North 470 541 38,000  Level Kansas City Center
04:33PM 36.7097 -90.6106 352° North 477 549 38,000  Level Kansas City Center
04:34PM 36.8447 -90.6339 352° North 483 556 38,000  Level Kansas City Center
04:35PM 36.9778 -90.6581 352° North 483 556 38,000  Level Kansas City Center
04:36PM 37.1117 -90.6800 353° North 483 556 38,000  Level Kansas City Center
04:37PM 37.2447 -90.7036 352° North 481 554 38,000  Level Kansas City Center
04:38PM 37.3875 -90.7294 352° North 474 545 38,000  Level Kansas City Center
04:39PM 37.5108 -90.7519 352° North 471 542 38,000  Level Kansas City Center
04:40PM 37.6447 -90.7769 352° North 467 537 38,000  Level Kansas City Center
04:41PM 37.7731 -90.8006 352° North 465 535 38,000  Level Kansas City Center
04:42PM 37.9033 -90.8239 352° North 469 540 38,000  Level Kansas City Center
04:43PM 38.0575 -90.8522 352° North 467 537 38,000  Level Kansas City Center
04:44PM 38.1872 -90.8761 352° North 469 540 38,000  Level Kansas City Center
04:46PM 38.3144 -90.8997 352° North 464 534 38,000  Level Kansas City Center
04:47PM 38.4439 -90.9242 352° North 465 535 38,000  Level Kansas City Center
04:48PM 38.5731 -90.9492 351° North 466 536 38,000  Level Kansas City Center
04:49PM 38.7036 -90.9528 359° North 470 541 38,000 -300 Level Kansas City Center
04:50PM 38.8294 -90.8983 19° North 476 548 37,400 -780 Descending Kansas City Center
04:51PM 38.9561 -90.8319 22° Northeast 484 557 36,400 -1,080 Descending Kansas City Center
04:52PM 39.1039 -90.7503 23° Northeast 480 552 35,200 -1,080 Descending Kansas City Center
04:53PM 39.2258 -90.6856 22° Northeast 473 544 34,200 -1,020 Descending Kansas City Center
04:54PM 39.3533 -90.6139 23° Northeast 490 564 33,200 -600 Descending Kansas City Center
04:55PM 39.4767 -90.5461 23° Northeast 487 560 33,000 -120 Descending Kansas City Center
04:56PM 39.5981 -90.4778 23° Northeast 479 551 33,000  Level Kansas City Center
04:57PM 39.7208 -90.4106 23° Northeast 478 550 33,000  Level Kansas City Center
04:58PM 39.8436 -90.3417 23° Northeast 476 548 33,000  Level Kansas City Center
04:58PM 39.8922 -90.3144 23° Northeast 477 549 33,000  Level Chicago Center
04:59PM 40.0133 -90.2456 24° Northeast 477 549 33,000  Level Chicago Center
05:00PM 40.1344 -90.1764 24° Northeast 475 547 33,000  Level Chicago Center
05:01PM 40.2806 -90.0939 23° Northeast 477 549 33,000  Level Chicago Center
05:02PM 40.4022 -90.0253 23° Northeast 476 548 33,000  Level Chicago Center
05:03PM 40.5242 -89.9558 23° Northeast 472 543 33,000 -240 Level Chicago Center
05:04PM 40.6456 -89.8869 23° Northeast 474 545 32,600 -960 Descending Chicago Center
05:05PM 40.7647 -89.8153 24° Northeast 474 545 31,100 -1,440 Descending Chicago Center
05:07PM 40.8900 -89.7450 23° Northeast 487 560 29,600 -2,160 Descending Chicago Center
05:08PM 41.0244 -89.6669 24° Northeast 480 552 26,600 -2,700 Descending Chicago Center
05:09PM 41.1414 -89.5972 24° Northeast 464 534 24,100 -2,280 Descending Chicago Center
05:10PM 41.2133 -89.4589 55° Northeast 465 535 22,000 -2,400 Descending Chicago Center
05:11PM 41.2853 -89.2792 62° Northeast 459 528 19,200 -2,280 Descending Chicago Center
05:12PM 41.3344 -89.1586 61° Northeast 434 499 17,400 -2,220 Descending Chicago Center
05:13PM 41.3983 -88.9961 62° Northeast 418 481 14,700 -2,340 Descending Chicago Center
05:14PM 41.4503 -88.8633 62° Northeast 408 470 12,600 -1,740 Descending Chicago Center
05:15PM 41.5014 -88.7353 62° Northeast 398 458 11,200 -780 Descending Chicago Center
05:16PM 41.5486 -88.6158 62° Northeast 358 412 11,000 -120 Descending Chicago Center
05:17PM 41.5878 -88.5183 62° Northeast 306 352 11,000 -780 Level Chicago Center
05:18PM 41.6439 -88.4067 56° Northeast 304 350 9,500 -1,320 Descending Chicago Center
05:19PM 41.7122 -88.3578 28° Northeast 292 336 8,300 -1,200 Descending Chicago Center
05:20PM 41.7897 -88.3319 14° North 287 330 7,100 -1,080 Descending Chicago Center
05:21PM 41.8658 -88.3075 13° North 283 326 6,100 -1,020 Descending Chicago Center
05:22PM 41.9300 -88.2703 23° Northeast 265 305 5,000 -1,020 Descending Chicago Center
05:23PM 41.9550 -88.1942 66° East 232 267 4,000 -900 Descending Chicago Center
05:24PM 41.9683 -88.0989 79° East 219 252 3,200 -960 Descending Chicago Center
05:25PM 41.9667 -88.0500 93° East 199 229 2,500 -1,020 Descending Chicago TRACON
05:26PM 41.9667 -88.0000 90° East 168 193 1,800 -780 Descending Chicago TRACON
05:27PM 41.9667 -87.9500 90° East 138 159 1,100 -720 Descending Chicago TRACON